Porlamar, Venezuela
Current Conditions -  °F | °C
As of 6:00 PM on Sunday 25 Jan 2015 (Local Time) from TGPY Reporting Station
Few Clouds Few Clouds  
Wind Chill: 27°   Ceiling: Unl
Heat Index: 30°   Visibility: 6mi
Dew Point: 23°   Wind: 131mph
Humidity: 79%   Direction: 110°ESE
Pressure: 29.91"   Gusts: NA
Location:  10.96°N, 63.85°W
Report Text: TGPY 252200Z 110114KT 9999 FEW020 27/23 Q1013 NOSIG
Loading
Personal Weather Stations






























Interactive Weather Map New forecast layout! Learn more

10-Day Weather Forecast

Advertisements
Track Severe Weather on mobile